Tropical Cyclones
[Index]
Season 2020-2021 Tropical Cyclone IMAN Track Map
Season 2020-2021 Summaries (Operational Data): [AU] [SIO] [SPAC] [SH]
<<- Previous TC | 2020-2021 Season | Next TC ->>

click for intensity scale information  Lat/long Grid: Show Hide

 Date Labels: Show Hide

Operational Tropical Cyclone Data

Name: IMAN
Number: 2125

03 Feb 2021 12:00 UTC to 13 Feb 2021 00:00 UTC

    date/time    lat    long     hPa   cat  kts
2021-02-03 12   17.4    38.6    1006         15          
2021-02-03 18   17.5    39.5    1005         15          
2021-02-04 00   17.4    40.4    1005         15          
2021-02-04 06   17.1    41.0    1005         15          
2021-02-04 12   16.9    41.2    1001         20          
2021-02-04 18   16.9    41.5    1002         20          
2021-02-05 00   17.1    42.5    1002         20          
2021-02-05 06   17.4    43.4    1004         20          
2021-02-05 12   18.1    44.7    1002         20          
2021-02-05 18   18.7    46.0    1005         20          
2021-02-06 00   19.4    48.1    1004         20          
2021-02-06 06   19.8    49.2    1002         20          
2021-02-06 12   20.6    50.6    1001         20          
2021-02-06 18   21.7    52.8    1005         25          
2021-02-07 00   22.2    53.8    1004         25          
2021-02-07 06   22.8    55.0    1001         25          
2021-02-07 12   23.4    56.2     996    1    35          
2021-02-07 18   24.4    58.0     991    1    40          
2021-02-08 00   25.2    59.6     992    1    40          
2021-02-08 06   26.7    61.2     996    1    40          
2021-02-08 12   27.4    62.1    1000         25          
2021-02-08 18   27.4    62.7    1000         25          
2021-02-09 00   27.7    63.9     999         25          
2021-02-09 06   29.8    65.2                             
2021-02-09 12   30.1    65.7                             
2021-02-09 18   31.0    66.5                             
2021-02-10 00   31.9    67.4                             
2021-02-10 06   32.6    67.7                             
2021-02-10 12   32.7    68.0                             
2021-02-10 18   33.1    68.3                             
2021-02-11 00   33.1    68.0                             
2021-02-11 06   33.3    68.0                             
2021-02-11 12   32.8    67.7                             
2021-02-11 18   32.4    67.3                             
2021-02-12 00   32.3    67.3                             
2021-02-12 06   32.2    66.7                             
2021-02-12 12   31.6    67.2                             
2021-02-12 18   32.3    67.4                             
2021-02-13 00   33.4    67.6                             
Winds were reported as (or converted to) 10-min average.

Tropical cyclone tracks developed by Michael Bath using operational warnings and advisories and Google Maps.


Document: tropical_cyclone_iman.htm
Updated: 7 May 2021
[Australian Severe Weather index] [Copyright Notice] [Email Contacts] [Search This Site] [Privacy Policy]


Main Index Home Page Stock Weather Photos Extreme Storms Discussion Storm News and Storm Chasing Reports Tropical Cyclones / Hurricanes / Typhoons Weather Data and Links Wild Fires / Bushfires Weather Observation Techniques Weather Picture Catalogue Tornado Pictures and Reports Stock Video Footage and DVDs for sale